createdAt,value
2023-04-10T00:00:58.780Z,47.53
2023-04-10T00:04:03.077Z,47.38
2023-04-10T00:07:06.169Z,47.56
2023-04-10T00:10:09.329Z,47.51
2023-04-10T00:13:12.109Z,47.45
2023-04-10T00:16:14.980Z,47.40
2023-04-10T00:19:19.184Z,47.32
2023-04-10T00:22:22.021Z,47.49
2023-04-10T00:25:25.136Z,47.24
2023-04-10T00:28:28.013Z,47.32
2023-04-10T00:31:31.601Z,47.38
2023-04-10T00:34:36.026Z,47.31
2023-04-10T00:37:39.196Z,47.37
2023-04-10T00:40:41.977Z,47.41
2023-04-10T00:43:45.313Z,47.41
2023-04-10T00:46:48.304Z,47.39
2023-04-10T00:49:52.899Z,47.34
2023-04-10T00:52:55.921Z,47.33
2023-04-10T00:55:59.992Z,47.36
2023-04-10T00:59:05.770Z,47.29
2023-04-10T01:02:11.302Z,47.40
2023-04-10T01:05:15.765Z,47.35
2023-04-10T01:08:25.985Z,47.47
2023-04-10T01:11:40.267Z,47.51
2023-04-10T01:14:50.378Z,47.47
2023-04-10T01:18:02.250Z,47.35
2023-04-10T01:21:09.415Z,47.56
2023-04-10T01:24:35.928Z,47.59
2023-04-10T01:27:47.946Z,47.47
2023-04-10T01:30:54.937Z,47.45
2023-04-10T01:34:03.296Z,47.40
2023-04-10T01:37:12.884Z,47.42
2023-04-10T01:40:17.500Z,47.47
2023-04-10T01:43:22.936Z,47.49
2023-04-10T01:46:30.646Z,47.54
2023-04-10T01:49:35.639Z,47.56
2023-04-10T01:52:40.484Z,47.56
2023-04-10T01:56:03.835Z,47.48
2023-04-10T01:59:14.868Z,47.39
2023-04-10T02:02:19.147Z,47.48
2023-04-10T02:05:23.189Z,47.47
2023-04-10T02:08:32.361Z,47.39
2023-04-10T02:11:42.942Z,47.38
2023-04-10T02:14:48.290Z,47.40
2023-04-10T02:17:53.958Z,47.39
2023-04-10T02:20:57.182Z,47.28
2023-04-10T02:24:00.088Z,47.39
2023-04-10T02:27:02.928Z,47.38
2023-04-10T02:30:06.784Z,47.46
2023-04-10T02:33:12.701Z,47.35
2023-04-10T02:36:15.537Z,47.48
2023-04-10T02:39:18.290Z,47.47
2023-04-10T02:42:24.418Z,47.35
2023-04-10T02:45:29.176Z,47.27
2023-04-10T02:48:33.482Z,47.40
2023-04-10T02:51:38.654Z,47.35
2023-04-10T02:54:41.728Z,47.37
2023-04-10T02:57:44.510Z,47.35
2023-04-10T03:00:49.812Z,47.35
2023-04-10T03:04:04.900Z,47.47
2023-04-10T03:07:12.857Z,47.44
2023-04-10T03:10:15.815Z,47.47
2023-04-10T03:13:18.853Z,47.58
2023-04-10T03:16:21.698Z,47.42
2023-04-10T03:19:26.789Z,47.41
2023-04-10T03:22:32.149Z,47.29
2023-04-10T03:25:36.562Z,47.25
2023-04-10T03:28:41.314Z,47.38
2023-04-10T03:31:46.113Z,47.37
2023-04-10T03:34:50.396Z,47.40
2023-04-10T03:37:53.149Z,47.38
2023-04-10T03:40:56.534Z,47.37
2023-04-10T03:44:03.288Z,47.40
2023-04-10T03:47:06.225Z,47.25
2023-04-10T03:50:11.612Z,47.25
2023-04-10T03:53:22.098Z,47.44
2023-04-10T03:56:25.680Z,47.34
2023-04-10T03:59:37.935Z,47.42
2023-04-10T04:02:44.218Z,47.37
2023-04-10T04:05:49.168Z,47.35
2023-04-10T04:09:00.138Z,47.39
2023-04-10T04:12:38.557Z,47.40
2023-04-10T04:16:01.136Z,47.30
2023-04-10T04:19:32.899Z,47.32
2023-04-10T04:23:06.236Z,47.43
2023-04-10T04:26:11.859Z,47.40
2023-04-10T04:29:23.781Z,47.35
2023-04-10T04:32:42.155Z,47.49
2023-04-10T04:35:52.945Z,47.47
2023-04-10T04:39:15.860Z,47.28
2023-04-10T04:42:24.428Z,47.28
2023-04-10T04:45:50.275Z,47.18
2023-04-10T04:49:11.946Z,47.15
2023-04-10T04:52:37.667Z,47.15
2023-04-10T04:56:02.581Z,47.15
2023-04-10T04:59:14.102Z,47.25
2023-04-10T05:02:31.406Z,47.26
2023-04-10T05:06:08.337Z,47.26
2023-04-10T05:09:34.253Z,47.14
2023-04-10T05:12:53.488Z,47.06
2023-04-10T05:16:05.691Z,47.20
2023-04-10T05:19:08.460Z,47.05
2023-04-10T05:22:29.670Z,47.07
2023-04-10T05:25:59.884Z,47.14
2023-04-10T05:29:23.456Z,47.05
2023-04-10T05:32:46.006Z,47.11
2023-04-10T05:36:27.614Z,47.20
2023-04-10T05:39:43.961Z,47.26
2023-04-10T05:43:06.889Z,47.19
2023-04-10T05:46:29.749Z,47.15
2023-04-10T05:49:49.761Z,47.20
2023-04-10T05:52:58.256Z,47.02
2023-04-10T05:56:18.504Z,47.14
2023-04-10T05:59:35.301Z,47.14
2023-04-10T06:02:57.704Z,47.11
2023-04-10T06:06:03.894Z,47.06
2023-04-10T06:09:08.171Z,47.04
2023-04-10T06:12:11.050Z,46.98
2023-04-10T06:15:16.213Z,46.97
2023-04-10T06:18:20.894Z,47.04
2023-04-10T06:21:24.464Z,47.07
2023-04-10T06:24:27.200Z,47.05
2023-04-10T06:27:31.272Z,47.09
2023-04-10T06:30:37.180Z,47.02
2023-04-10T06:33:43.546Z,47.11
2023-04-10T06:36:46.927Z,47.08
2023-04-10T06:39:50.152Z,47.09
2023-04-10T06:42:52.951Z,47.08
2023-04-10T06:46:05.364Z,47.11
2023-04-10T06:49:09.451Z,47.01
2023-04-10T06:52:12.313Z,46.98
2023-04-10T06:55:15.072Z,46.99
2023-04-10T06:58:18.629Z,47.08
2023-04-10T07:01:21.482Z,46.94
2023-04-10T07:04:25.662Z,46.97
2023-04-10T07:07:29.250Z,46.96
2023-04-10T07:10:32.081Z,47.04
2023-04-10T07:13:35.638Z,46.99
2023-04-10T07:16:38.470Z,47.11
2023-04-10T07:19:42.591Z,47.06
2023-04-10T07:22:45.459Z,47.12
2023-04-10T07:25:48.211Z,46.97
2023-04-10T07:28:50.967Z,47.14
2023-04-10T07:31:53.850Z,47.08
2023-04-10T07:34:58.067Z,47.05
2023-04-10T07:38:00.823Z,47.05
2023-04-10T07:41:03.569Z,47.14
2023-04-10T07:44:06.350Z,47.24
2023-04-10T07:47:09.188Z,47.18
2023-04-10T07:50:13.342Z,47.20
2023-04-10T07:53:16.196Z,47.13
2023-04-10T07:56:20.251Z,47.23
2023-04-10T07:59:22.987Z,47.02
2023-04-10T08:02:26.179Z,47.13
2023-04-10T08:05:30.699Z,47.22
2023-04-10T08:08:33.451Z,47.27
2023-04-10T08:11:38.659Z,47.18
2023-04-10T08:14:41.665Z,47.16
2023-04-10T08:17:44.505Z,47.22
2023-04-10T08:20:48.647Z,47.20
2023-04-10T08:23:51.841Z,47.15
2023-04-10T08:26:54.635Z,47.23
2023-04-10T08:29:57.538Z,47.34
2023-04-10T08:33:00.353Z,47.24
2023-04-10T08:36:05.887Z,47.38
2023-04-10T08:39:08.702Z,47.40
2023-04-10T08:42:11.704Z,47.39
2023-04-10T08:45:14.481Z,47.33
2023-04-10T08:48:20.547Z,47.38
2023-04-10T08:51:29.984Z,47.28
2023-04-10T08:54:35.299Z,47.29
2023-04-10T08:57:40.713Z,47.29
2023-04-10T09:00:45.750Z,47.48
2023-04-10T09:03:49.624Z,47.28
2023-04-10T09:06:54.832Z,47.32
2023-04-10T09:09:57.816Z,47.28
2023-04-10T09:13:00.788Z,47.47
2023-04-10T09:16:04.970Z,47.38
2023-04-10T09:19:07.876Z,47.40
2023-04-10T09:22:12.230Z,47.42
2023-04-10T09:25:30.800Z,47.40
2023-04-10T09:28:35.208Z,47.30
2023-04-10T09:31:38.974Z,47.35
2023-04-10T09:34:56.814Z,47.42
2023-04-10T09:38:01.062Z,47.27
2023-04-10T09:41:08.262Z,47.34
2023-04-10T09:44:12.800Z,47.27
2023-04-10T09:47:21.468Z,47.30
2023-04-10T09:50:38.692Z,47.26
2023-04-10T09:53:51.133Z,47.27
2023-04-10T09:56:54.815Z,47.26
2023-04-10T09:59:58.681Z,47.27
2023-04-10T10:03:04.270Z,47.29
2023-04-10T10:06:07.984Z,47.26
2023-04-10T10:09:12.460Z,47.15
2023-04-10T10:12:17.967Z,47.17
2023-04-10T10:15:29.614Z,47.07
2023-04-10T10:18:40.781Z,47.03
2023-04-10T10:21:45.817Z,46.99
2023-04-10T10:24:50.799Z,47.12
2023-04-10T10:27:55.430Z,47.26
2023-04-10T10:30:58.711Z,47.00
2023-04-10T10:34:04.810Z,47.08
2023-04-10T10:37:08.123Z,46.92
2023-04-10T10:40:18.787Z,46.87
2023-04-10T10:43:28.949Z,46.98
2023-04-10T10:46:37.967Z,46.93
2023-04-10T10:49:57.302Z,46.95
2023-04-10T10:53:01.378Z,47.00
2023-04-10T10:56:38.629Z,47.00
2023-04-10T10:59:57.723Z,46.92
2023-04-10T11:03:30.918Z,46.92
2023-04-10T11:06:52.139Z,46.99
2023-04-10T11:09:57.356Z,46.79
2023-04-10T11:13:19.849Z,46.82
2023-04-10T11:16:24.626Z,46.68
2023-04-10T11:19:27.770Z,47.60
2023-04-10T11:22:30.798Z,49.14
2023-04-10T11:25:49.078Z,49.47
2023-04-10T11:28:53.637Z,50.41
2023-04-10T11:31:58.086Z,52.01
2023-04-10T11:35:01.885Z,52.46
2023-04-10T11:38:18.171Z,52.96
2023-04-10T11:41:20.940Z,53.34
2023-04-10T11:44:31.814Z,52.86
2023-04-10T11:47:35.624Z,52.54
2023-04-10T11:50:38.567Z,52.29
2023-04-10T11:53:42.760Z,52.56
2023-04-10T11:56:58.832Z,52.53
2023-04-10T12:00:04.228Z,52.22
2023-04-10T12:03:09.126Z,51.85
2023-04-10T12:06:13.480Z,51.33
2023-04-10T12:09:17.192Z,51.00
2023-04-10T12:12:20.678Z,50.71
2023-04-10T12:15:29.378Z,50.30
2023-04-10T12:18:32.762Z,50.24
2023-04-10T12:21:37.402Z,50.11
2023-04-10T12:24:45.098Z,49.82
2023-04-10T12:27:51.072Z,49.60
2023-04-10T12:30:55.272Z,49.51
2023-04-10T12:33:58.692Z,49.36
2023-04-10T12:37:01.532Z,49.31
2023-04-10T12:40:08.426Z,49.17
2023-04-10T12:43:11.273Z,49.59
2023-04-10T12:46:26.731Z,50.07
2023-04-10T12:49:29.474Z,50.61
2023-04-10T12:52:32.453Z,50.29
2023-04-10T12:55:36.747Z,50.03
2023-04-10T12:58:41.083Z,50.37
2023-04-10T13:01:45.574Z,50.34
2023-04-10T13:04:48.413Z,50.33
2023-04-10T13:07:52.727Z,50.16
2023-04-10T13:10:58.090Z,50.09
2023-04-10T13:14:00.912Z,50.08
2023-04-10T13:17:05.095Z,51.13
2023-04-10T13:20:10.286Z,51.05
2023-04-10T13:23:13.111Z,50.70
2023-04-10T13:26:15.850Z,50.76
2023-04-10T13:29:18.624Z,50.65
2023-04-10T13:32:22.727Z,51.23
2023-04-10T13:35:25.578Z,51.25
2023-04-10T13:38:28.540Z,51.19
2023-04-10T13:41:31.292Z,50.94
2023-04-10T13:44:34.132Z,50.74
2023-04-10T13:47:38.352Z,50.57
2023-04-10T13:50:41.216Z,46.02
2023-04-10T13:53:44.034Z,41.21
2023-04-10T13:56:46.974Z,42.66
2023-04-10T13:59:49.891Z,43.93
2023-04-10T14:02:54.281Z,43.64
2023-04-10T14:05:57.233Z,44.01
2023-04-10T14:09:00.008Z,43.58
2023-04-10T14:12:03.233Z,43.03
2023-04-10T14:15:07.012Z,42.83
2023-04-10T14:18:11.166Z,42.78
2023-04-10T14:21:14.009Z,42.61
2023-04-10T14:24:16.851Z,42.91
2023-04-10T14:27:19.792Z,42.88
2023-04-10T14:30:22.630Z,42.73
2023-04-10T14:33:26.783Z,43.29
2023-04-10T14:36:29.545Z,43.71
2023-04-10T14:39:33.820Z,44.02
2023-04-10T14:42:36.548Z,44.09
2023-04-10T14:45:39.306Z,44.00
2023-04-10T14:48:43.677Z,44.13
2023-04-10T14:51:48.406Z,44.10
2023-04-10T14:54:51.190Z,44.27
2023-04-10T14:57:53.944Z,44.32
2023-04-10T15:00:56.738Z,44.44
2023-04-10T15:04:01.051Z,44.55
2023-04-10T15:07:04.282Z,44.65
2023-04-10T15:10:08.253Z,44.58
2023-04-10T15:13:11.012Z,44.62
2023-04-10T15:16:13.958Z,44.85
2023-04-10T15:19:18.180Z,44.68
2023-04-10T15:22:20.932Z,44.88
2023-04-10T15:25:23.696Z,44.73
2023-04-10T15:28:28.098Z,44.94
2023-04-10T15:31:30.875Z,44.92
2023-04-10T15:34:35.405Z,44.96
2023-04-10T15:37:38.187Z,44.87
2023-04-10T15:40:40.970Z,45.04
2023-04-10T15:43:43.708Z,44.91
2023-04-10T15:46:47.493Z,44.99
2023-04-10T15:49:51.640Z,45.03
2023-04-10T15:52:54.416Z,45.05
2023-04-10T15:55:57.269Z,45.12
2023-04-10T15:59:00.139Z,45.07
2023-04-10T16:02:03.335Z,45.18
2023-04-10T16:05:09.158Z,45.01
2023-04-10T16:08:12.177Z,45.27
2023-04-10T16:11:14.962Z,45.30
2023-04-10T16:14:18.834Z,45.21
2023-04-10T16:17:21.629Z,45.18
2023-04-10T16:20:25.875Z,45.39
2023-04-10T16:23:28.696Z,45.37
2023-04-10T16:26:31.463Z,45.42
2023-04-10T16:29:34.265Z,45.42
2023-04-10T16:32:37.075Z,45.44
2023-04-10T16:35:41.296Z,45.56
2023-04-10T16:38:44.566Z,45.49
2023-04-10T16:41:47.382Z,45.49
2023-04-10T16:44:50.315Z,45.54
2023-04-10T16:47:53.185Z,45.54
2023-04-10T16:51:04.669Z,45.71
2023-04-10T16:54:07.930Z,45.55
2023-04-10T16:57:10.816Z,45.61
2023-04-10T17:00:14.650Z,45.59
2023-04-10T17:03:17.510Z,45.72
2023-04-10T17:06:22.101Z,45.73
2023-04-10T17:09:24.971Z,45.57
2023-04-10T17:12:27.810Z,45.71
2023-04-10T17:15:30.712Z,45.72
2023-04-10T17:18:34.157Z,45.87
2023-04-10T17:21:38.474Z,45.80
2023-04-10T17:24:41.258Z,45.84
2023-04-10T17:27:44.065Z,45.98
2023-04-10T17:30:48.359Z,45.90
2023-04-10T17:33:51.151Z,45.90
2023-04-10T17:36:55.339Z,45.93
2023-04-10T17:39:58.228Z,46.08
2023-04-10T17:43:01.047Z,45.86
2023-04-10T17:46:03.839Z,45.93
2023-04-10T17:49:06.682Z,46.08
2023-04-10T17:52:10.799Z,46.05
2023-04-10T17:55:18.369Z,45.94
2023-04-10T17:58:23.968Z,46.09
2023-04-10T18:01:30.098Z,46.25
2023-04-10T18:04:32.988Z,46.23
2023-04-10T18:07:38.196Z,46.07
2023-04-10T18:10:41.116Z,46.18
2023-04-10T18:13:43.880Z,46.14
2023-04-10T18:16:46.739Z,46.25
2023-04-10T18:19:51.196Z,46.28
2023-04-10T18:22:55.380Z,46.09
2023-04-10T18:25:58.447Z,46.25
2023-04-10T18:29:01.506Z,46.17
2023-04-10T18:32:04.353Z,46.17
2023-04-10T18:35:07.900Z,46.19
2023-04-10T18:38:12.084Z,46.29
2023-04-10T18:41:14.895Z,46.34
2023-04-10T18:44:17.744Z,46.43
2023-04-10T18:47:20.566Z,46.31
2023-04-10T18:50:23.361Z,46.46
2023-04-10T18:53:27.530Z,46.30
2023-04-10T18:56:30.352Z,46.35
2023-04-10T18:59:33.094Z,46.50
2023-04-10T19:02:36.068Z,46.34
2023-04-10T19:05:38.879Z,46.41
2023-04-10T19:08:43.071Z,46.52
2023-04-10T19:11:45.957Z,46.49
2023-04-10T19:14:49.894Z,46.46
2023-04-10T19:17:54.093Z,46.47
2023-04-10T19:20:56.980Z,46.54
2023-04-10T19:24:03.533Z,46.41
2023-04-10T19:27:06.488Z,46.42
2023-04-10T19:30:10.525Z,46.49
2023-04-10T19:33:13.290Z,46.62
2023-04-10T19:36:16.685Z,46.47
2023-04-10T19:39:20.863Z,46.59
2023-04-10T19:42:23.647Z,46.55
2023-04-10T19:45:27.345Z,46.46
2023-04-10T19:48:30.359Z,46.50
2023-04-10T19:51:33.317Z,46.53
2023-04-10T19:54:37.458Z,46.53
2023-04-10T19:57:40.938Z,46.58
2023-04-10T20:00:43.767Z,46.64
2023-04-10T20:03:46.652Z,46.54
2023-04-10T20:06:49.681Z,46.72
2023-04-10T20:09:53.835Z,46.53
2023-04-10T20:12:56.636Z,46.58
2023-04-10T20:15:59.574Z,46.68
2023-04-10T20:19:02.603Z,46.71
2023-04-10T20:22:05.472Z,46.52
2023-04-10T20:25:10.758Z,46.56
2023-04-10T20:28:13.492Z,46.58
2023-04-10T20:31:16.368Z,46.63
2023-04-10T20:34:19.232Z,46.56
2023-04-10T20:37:22.830Z,46.41
2023-04-10T20:40:27.613Z,46.55
2023-04-10T20:43:30.372Z,46.52
2023-04-10T20:46:33.215Z,46.54
2023-04-10T20:49:37.384Z,46.47
2023-04-10T20:52:41.050Z,46.57
2023-04-10T20:55:45.317Z,46.46
2023-04-10T20:58:48.133Z,46.46
2023-04-10T21:04:53.780Z,46.56
2023-04-10T21:07:56.589Z,46.49
2023-04-10T21:11:00.837Z,46.55
2023-04-10T21:14:03.871Z,46.55
2023-04-10T21:17:06.731Z,46.43
2023-04-10T21:20:10.203Z,46.43
2023-04-10T21:23:12.980Z,46.59
2023-04-10T21:29:19.952Z,46.51
2023-04-10T21:32:22.828Z,46.52
2023-04-10T21:35:25.739Z,46.59
2023-04-10T21:38:28.636Z,46.58
2023-04-10T21:41:33.136Z,46.64
2023-04-10T21:44:36.035Z,46.67
2023-04-10T21:47:38.837Z,46.55
2023-04-10T21:50:41.789Z,46.71
2023-04-10T21:53:44.585Z,46.80
2023-04-10T21:56:48.776Z,46.65
2023-04-10T21:59:51.548Z,46.69
2023-04-10T22:02:54.503Z,46.82
2023-04-10T22:05:57.365Z,46.72
2023-04-10T22:09:00.413Z,47.01
2023-04-10T22:12:04.652Z,46.95
2023-04-10T22:15:08.974Z,46.96
2023-04-10T22:18:11.767Z,46.92
2023-04-10T22:21:14.496Z,46.92
2023-04-10T22:24:17.279Z,46.98
2023-04-10T22:27:21.429Z,47.04
2023-04-10T22:30:24.276Z,46.97
2023-04-10T22:33:27.081Z,47.03
2023-04-10T22:36:32.758Z,46.91
2023-04-10T22:39:35.506Z,47.00
2023-04-10T22:42:39.619Z,46.92
2023-04-10T22:45:42.975Z,47.04
2023-04-10T22:48:46.888Z,47.14
2023-04-10T22:51:49.830Z,47.17
2023-04-10T22:54:52.588Z,47.18
2023-04-10T22:57:56.736Z,47.26
2023-04-10T23:00:59.498Z,47.22
2023-04-10T23:04:02.436Z,47.12
2023-04-10T23:07:05.305Z,47.20
2023-04-10T23:10:09.521Z,46.96
2023-04-10T23:13:13.680Z,46.98
2023-04-10T23:16:16.475Z,46.89
2023-04-10T23:19:19.449Z,46.90
2023-04-10T23:22:22.245Z,46.97
2023-04-10T23:25:25.273Z,46.89
2023-04-10T23:28:29.517Z,46.85
2023-04-10T23:31:32.366Z,46.91
2023-04-10T23:34:35.121Z,46.99
2023-04-10T23:37:37.940Z,47.07
2023-04-10T23:40:40.757Z,46.95
2023-04-10T23:43:45.522Z,46.75
2023-04-10T23:46:49.433Z,46.86
2023-04-10T23:49:52.308Z,46.85
2023-04-10T23:52:55.058Z,46.99
2023-04-10T23:55:57.843Z,46.83
2023-04-10T23:59:01.988Z,46.90
